Time;durP1;ratioP1;P1;durP2;ratioP2;P2;SDS_P1;SDS_P2;PMS_P1;PMS_P2;Temp;Humidity;BMP_temperature;BMP_pressure;BME280_temperature;BME280_humidity;BME280_pressure;Samples;Min_cycle;Max_cycle;Signal;HPM_P1;HPM_P2
2021/12/07 00:00:58;;;;;;;3.50;0.57;;;;;;;7.18;76.92;100532.06;7394662;19;20092;-69
2021/12/07 00:03:26;;;;;;;3.13;0.80;;;;;;;7.15;76.32;100527.09;7391610;19;20534;-69
2021/12/07 00:05:53;;;;;;;2.65;0.50;;;;;;;7.16;76.21;100534.00;7395939;19;20011;-68
2021/12/07 00:08:20;;;;;;;1.83;0.25;;;;;;;7.13;76.31;100535.09;7392686;19;20036;-68
2021/12/07 00:10:50;;;;;;;6.95;0.45;;;;;;;7.10;75.95;100540.59;7393473;19;20391;-69
2021/12/07 00:13:17;;;;;;;7.28;0.80;;;;;;;7.11;77.94;100541.44;7394399;19;20003;-71
2021/12/07 00:15:44;;;;;;;1.33;0.32;;;;;;;7.09;77.17;100536.34;7392332;19;20018;-68
2021/12/07 00:18:11;;;;;;;7.43;0.57;;;;;;;7.09;77.32;100545.97;7394536;19;20029;-68
2021/12/07 00:20:38;;;;;;;3.33;0.35;;;;;;;7.03;77.24;100552.56;7390319;19;20018;-68
2021/12/07 00:23:08;;;;;;;5.35;0.85;;;;;;;6.99;77.10;100556.44;7391948;19;20028;-67
2021/12/07 00:25:36;;;;;;;4.07;0.60;;;;;;;6.99;78.43;100550.38;7391602;19;20403;-69
2021/12/07 00:28:04;;;;;;;4.78;0.40;;;;;;;6.97;77.43;100550.50;7388867;19;20316;-68
2021/12/07 00:30:33;;;;;;;4.65;0.40;;;;;;;6.99;77.67;100558.22;7389400;19;20456;-68
2021/12/07 00:35:39;;;;;;;3.85;0.30;;;;;;;7.02;78.07;100576.22;7394368;19;20025;-67
2021/12/07 00:38:12;;;;;;;3.83;0.40;;;;;;;7.01;77.45;100572.00;7391635;19;20038;-67
2021/12/07 00:40:40;;;;;;;;;;;;;;;7.04;77.78;100580.38;7394923;19;20074;-70
2021/12/07 00:43:08;;;;;;;1.95;0.30;;;;;;;7.04;77.93;100579.56;7390188;19;19978;-69
2021/12/07 00:45:35;;;;;;;5.40;0.30;;;;;;;7.00;77.28;100573.78;7393998;19;20026;-69
2021/12/07 00:48:05;;;;;;;2.95;0.20;;;;;;;7.01;77.37;100572.78;7392076;19;20041;-67
2021/12/07 00:50:35;;;;;;;4.15;0.30;;;;;;;7.01;76.96;100562.31;7391376;19;20468;-68
2021/12/07 00:53:05;;;;;;;4.20;0.40;;;;;;;6.98;77.06;100556.56;7391559;19;20014;-67
2021/12/07 00:55:39;;;;;;;5.65;0.60;;;;;;;6.96;77.67;100546.22;7390781;19;20010;-66
2021/12/07 00:58:18;;;;;;;3.00;0.57;;;;;;;6.94;78.86;100550.78;7391426;19;20011;-68
2021/12/07 01:01:05;;;;;;;2.95;0.30;;;;;;;6.94;78.19;100548.16;7390336;19;20015;-68
2021/12/07 01:03:33;;;;;;;4.22;0.30;;;;;;;6.97;78.03;100544.44;7388409;19;20019;-68
2021/12/07 01:06:15;;;;;;;2.17;0.20;;;;;;;6.96;78.08;100537.56;7393408;19;20038;-67
2021/12/07 01:27:02;;;;;;;8.32;0.43;;;;;;;6.96;77.94;100537.56;7393445;19;20011;-67
2021/12/07 01:29:30;;;;;;;5.68;1.20;;;;;;;6.95;79.30;100538.53;7394665;19;20018;-69
2021/12/07 01:47:46;;;;;;;9.98;0.98;;;;;;;6.72;78.62;100517.84;7393492;19;20010;-69
2021/12/07 02:00:28;;;;;;;1.23;0.40;;;;;;;6.64;78.90;100519.50;7397649;19;20825;-70
2021/12/07 02:02:55;;;;;;;4.97;0.82;;;;;;;6.62;78.70;100521.41;7400230;19;20014;-68
2021/12/07 02:05:23;;;;;;;4.00;0.60;;;;;;;6.64;80.55;100517.72;7396732;19;20034;-69
2021/12/07 02:07:50;;;;;;;2.72;0.30;;;;;;;6.60;79.52;100520.75;7399460;19;20027;-68
2021/12/07 02:10:21;;;;;;;3.67;0.65;;;;;;;6.57;79.72;100510.53;7400021;19;20021;-68
2021/12/07 02:12:50;;;;;;;2.83;0.30;;;;;;;6.52;80.02;100502.28;7400614;19;20015;-68
2021/12/07 02:15:21;;;;;;;3.78;0.95;;;;;;;6.49;79.19;100505.16;7396922;19;20007;-69
2021/12/07 02:17:49;;;;;;;2.60;0.30;;;;;;;6.45;78.56;100501.97;7395343;19;20013;-68
2021/12/07 02:20:21;;;;;;;10.85;1.90;;;;;;;6.47;79.80;100512.31;7396763;19;20527;-69
2021/12/07 02:22:48;;;;;;;2.38;0.30;;;;;;;6.47;79.42;100512.31;7397062;19;20018;-70
2021/12/07 02:25:23;;;;;;;4.82;1.10;;;;;;;6.45;79.42;100515.88;7397048;19;20283;-70
2021/12/07 02:27:52;;;;;;;9.88;0.63;;;;;;;6.42;79.18;100507.50;7397294;19;20011;-69
2021/12/07 02:30:24;;;;;;;6.63;0.50;;;;;;;6.40;78.79;100514.63;7396102;19;20533;-68
2021/12/07 02:36:29;;;;;;;3.67;0.40;;;;;;;6.36;79.02;100510.63;7397817;19;20020;-69
2021/12/07 02:38:56;;;;;;;5.47;0.50;;;;;;;6.32;79.47;100517.09;7394579;19;20014;-70
2021/12/07 02:41:23;;;;;;;2.88;0.75;;;;;;;6.29;80.01;100515.59;7399868;19;20014;-68
2021/12/07 02:43:50;;;;;;;3.55;0.50;;;;;;;6.27;78.89;100522.72;7394399;19;20470;-68
2021/12/07 02:46:17;;;;;;;5.18;1.33;;;;;;;6.24;79.21;100527.38;7392885;19;20007;-66
2021/12/07 02:48:44;;;;;;;7.20;0.50;;;;;;;6.23;81.10;100526.56;7396594;19;20018;-69
2021/12/07 02:51:11;;;;;;;6.15;2.13;;;;;;;6.23;81.01;100526.56;7395990;19;20017;-67
2021/12/07 02:53:38;;;;;;;7.85;0.63;;;;;;;6.25;82.50;100519.41;7394153;19;20014;-70
2021/12/07 02:56:08;;;;;;;4.15;0.40;;;;;;;6.22;81.41;100518.84;7398984;19;20027;-69
2021/12/07 02:58:41;;;;;;;7.18;0.75;;;;;;;6.20;80.93;100518.97;7396166;19;20344;-68
2021/12/07 03:01:16;;;;;;;6.40;1.88;;;;;;;6.23;81.69;100525.72;7394755;19;19999;-66
2021/12/07 03:26:57;;;;;;;6.72;1.60;;;;;;;6.28;81.24;100479.13;7390262;19;20050;-70
2021/12/07 03:29:29;;;;;;;3.42;0.30;;;;;;;6.28;80.83;100487.81;7393673;19;20010;-65
2021/12/07 03:31:56;;;;;;;3.95;0.40;;;;;;;6.29;80.52;100502.53;7395803;19;20385;-68
2021/12/07 03:34:23;;;;;;;5.68;0.50;;;;;;;6.26;79.27;100518.44;7394305;19;20054;-68
2021/12/07 03:36:50;;;;;;;8.23;0.30;;;;;;;6.21;79.73;100507.56;7392814;19;20028;-69
2021/12/07 03:39:17;;;;;;;2.60;0.40;;;;;;;6.14;79.34;100511.69;7392372;19;20502;-69
2021/12/07 03:41:44;;;;;;;6.47;1.50;;;;;;;6.12;80.45;100515.38;7394510;19;20377;-68
2021/12/07 03:44:11;;;;;;;3.80;0.35;;;;;;;6.13;81.42;100502.19;7389914;19;20011;-67
2021/12/07 03:46:38;;;;;;;9.25;1.50;;;;;;;6.14;81.82;100505.63;7393822;19;20022;-70
2021/12/07 03:49:05;;;;;;;7.18;1.13;;;;;;;6.15;81.58;100505.47;7396813;19;20094;-67
2021/12/07 03:51:32;;;;;;;5.22;0.40;;;;;;;6.13;80.87;100515.25;7394956;19;20673;-66
2021/12/07 03:53:59;;;;;;;8.77;2.40;;;;;;;6.15;81.18;100522.94;7392742;19;20475;-69
2021/12/07 03:56:25;;;;;;;3.88;0.63;;;;;;;6.14;81.05;100516.91;7390535;19;20026;-66
2021/12/07 03:58:52;;;;;;;7.20;0.57;;;;;;;6.13;80.02;100520.47;7393511;19;20038;-68
2021/12/07 04:01:23;;;;;;;2.70;0.45;;;;;;;6.13;81.17;100524.88;7388827;19;20030;-67
2021/12/07 04:03:52;;;;;;;5.63;0.47;;;;;;;6.15;82.12;100515.94;7389444;19;20022;-69
2021/12/07 04:06:21;;;;;;;4.72;0.30;;;;;;;6.10;80.29;100514.66;7389247;19;20463;-69
2021/12/07 04:08:48;;;;;;;4.25;0.50;;;;;;;6.09;79.44;100510.44;7395582;19;20411;-68
2021/12/07 04:11:16;;;;;;;2.13;0.32;;;;;;;6.09;79.72;100505.19;7394270;19;20007;-67
2021/12/07 04:13:44;;;;;;;5.45;0.40;;;;;;;6.09;79.83;100500.81;7391864;19;20023;-67
2021/12/07 04:16:13;;;;;;;7.43;0.43;;;;;;;6.11;79.99;100492.81;7392188;19;20626;-67
2021/12/07 04:18:40;;;;;;;4.00;0.20;;;;;;;6.11;79.91;100483.19;7393350;19;20018;-70
2021/12/07 04:21:07;;;;;;;4.65;0.40;;;;;;;6.10;79.67;100480.72;7393012;19;20023;-68
2021/12/07 04:23:35;;;;;;;2.97;0.40;;;;;;;6.11;80.05;100487.59;7388673;19;20006;-67
2021/12/07 04:26:06;;;;;;;5.03;0.40;;;;;;;6.11;80.14;100480.59;7390262;19;20478;-67
2021/12/07 04:28:33;;;;;;;5.82;0.30;;;;;;;6.11;80.06;100479.75;7389153;19;20050;-68
2021/12/07 04:31:01;;;;;;;5.35;0.45;;;;;;;6.12;79.85;100476.19;7392139;19;20038;-69
2021/12/07 04:33:29;;;;;;;5.03;0.30;;;;;;;6.12;79.96;100463.16;7392772;19;20358;-67
2021/12/07 04:35:57;;;;;;;6.38;0.40;;;;;;;6.12;79.97;100447.47;7387401;19;20022;-68
2021/12/07 04:38:25;;;;;;;6.53;0.32;;;;;;;6.16;80.33;100454.06;7388944;19;20010;-69
2021/12/07 04:40:52;;;;;;;5.10;0.40;;;;;;;6.18;79.99;100466.06;7390460;19;20039;-67
2021/12/07 04:43:19;;;;;;;8.70;0.60;;;;;;;6.18;80.14;100463.44;7388423;19;20056;-67
2021/12/07 04:58:38;;;;;;;5.82;0.50;;;;;;;6.24;80.11;100472.53;7391582;19;20015;-68
2021/12/07 05:01:10;;;;;;;10.05;1.20;;;;;;;6.23;79.55;100463.88;7389654;19;20044;-69
2021/12/07 05:03:39;;;;;;;6.88;2.47;;;;;;;6.22;80.22;100469.22;7386890;19;20042;-69
2021/12/07 05:06:09;;;;;;;5.18;0.57;;;;;;;6.22;80.88;100449.16;7388411;19;20027;-69
2021/12/07 05:13:36;;;;;;;4.32;0.43;;;;;;;6.27;80.07;100430.47;7387551;19;20010;-66
2021/12/07 05:18:57;;;;;;;6.40;0.70;;;;;;;6.29;79.75;100416.31;7389379;19;20525;-70
2021/12/07 05:37:44;;;;;;;3.95;0.20;;;;;;;6.30;79.76;100404.88;7396187;19;20010;-68
2021/12/07 05:39:55;;;;;;;3.63;0.50;;;;;;;6.28;79.56;100406.81;7395770;19;20050;-68
2021/12/07 05:42:23;;;;;;;7.82;0.82;;;;;;;6.31;79.08;100405.72;7394020;19;20010;-69
2021/12/07 05:44:52;;;;;;;3.75;0.35;;;;;;;6.36;80.21;100391.28;7392122;19;20015;-68
2021/12/07 05:47:19;;;;;;;3.00;0.47;;;;;;;6.40;80.60;100394.44;7395466;19;20358;-68
2021/12/07 05:49:46;;;;;;;3.22;0.75;;;;;;;6.43;78.71;100386.34;7397500;19;20030;-68
2021/12/07 05:52:20;;;;;;;4.70;0.70;;;;;;;6.44;79.05;100380.16;7397099;19;20010;-68
2021/12/07 05:54:50;;;;;;;6.00;0.30;;;;;;;6.43;77.98;100394.19;7393884;19;20010;-69
2021/12/07 05:57:21;;;;;;;5.30;0.30;;;;;;;6.40;78.12;100384.00;7395070;19;20018;-67
2021/12/07 05:59:48;;;;;;;6.40;0.95;;;;;;;6.39;78.60;100382.38;7396973;19;20030;-67
2021/12/07 06:02:15;;;;;;;6.85;0.47;;;;;;;6.42;79.37;100371.63;7394938;19;20014;-69
2021/12/07 06:04:42;;;;;;;6.95;0.60;;;;;;;6.47;78.63;100358.13;7394246;19;20018;-69
2021/12/07 06:07:10;;;;;;;11.10;0.50;;;;;;;6.45;78.02;100360.88;7396505;19;20015;-67
2021/12/07 06:09:37;;;;;;;7.38;0.40;;;;;;;6.46;77.74;100354.69;7399016;19;20047;-67
2021/12/07 06:12:04;;;;;;;2.85;0.20;;;;;;;6.46;77.56;100354.69;7395685;19;20460;-66
2021/12/07 06:14:36;;;;;;;7.00;0.38;;;;;;;6.47;77.84;100358.97;7396650;19;20050;-68
2021/12/07 06:17:03;;;;;;;7.38;0.50;;;;;;;6.52;78.02;100340.25;7395856;19;20475;-69
2021/12/07 06:19:30;;;;;;;5.97;1.02;;;;;;;6.54;78.38;100325.28;7398714;19;20326;-67
2021/12/07 06:21:57;;;;;;;6.70;0.50;;;;;;;6.53;78.11;100315.78;7394407;19;21046;-68
2021/12/07 06:24:23;;;;;;;6.82;0.50;;;;;;;6.55;77.40;100319.09;7394758;19;20010;-69
2021/12/07 06:26:51;;;;;;;10.25;0.70;;;;;;;6.57;78.14;100310.13;7396500;19;20014;-69
2021/12/07 06:29:18;;;;;;;3.95;0.30;;;;;;;6.58;77.69;100287.44;7397965;19;20007;-69
2021/12/07 06:31:45;;;;;;;5.00;0.52;;;;;;;6.57;77.63;100289.22;7397244;19;20014;-67
2021/12/07 06:34:12;;;;;;;6.07;0.93;;;;;;;6.60;78.15;100291.59;7393959;19;20007;-68
2021/12/07 06:36:40;;;;;;;7.82;0.52;;;;;;;6.61;77.64;100271.47;7392891;19;20038;-68
2021/12/07 06:39:08;;;;;;;4.72;0.77;;;;;;;6.60;77.14;100265.44;7392444;19;20030;-68
2021/12/07 06:41:36;;;;;;;4.65;0.60;;;;;;;6.59;76.96;100261.19;7393500;19;20026;-69
2021/12/07 06:44:03;;;;;;;8.82;0.50;;;;;;;6.58;76.58;100258.69;7393476;19;20018;-67
2021/12/07 06:46:30;;;;;;;4.28;0.80;;;;;;;6.59;76.18;100235.03;7390452;19;20030;-68
2021/12/07 06:48:57;;;;;;;1.25;0.30;;;;;;;6.58;77.16;100229.94;7394538;19;20037;-68
2021/12/07 06:51:24;;;;;;;3.08;0.40;;;;;;;6.60;76.47;100228.84;7392630;19;20418;-67
2021/12/07 06:53:51;;;;;;;7.00;0.40;;;;;;;6.60;76.38;100241.09;7397737;19;20010;-69
2021/12/07 06:56:18;;;;;;;3.65;0.40;;;;;;;6.63;76.66;100235.56;7393434;19;20010;-68
2021/12/07 06:58:44;;;;;;;2.13;0.30;;;;;;;6.63;77.39;100214.66;7395987;19;20035;-68
2021/12/07 07:01:12;;;;;;;7.03;0.93;;;;;;;6.64;77.50;100203.25;7391985;19;20011;-69
2021/12/07 07:03:40;;;;;;;7.57;1.15;;;;;;;6.66;77.18;100199.50;7390717;19;20018;-70
2021/12/07 07:06:07;;;;;;;7.35;0.40;;;;;;;6.68;76.92;100194.16;7394020;19;20031;-70
2021/12/07 07:08:36;;;;;;;4.90;0.40;;;;;;;6.71;76.46;100189.44;7391793;19;20534;-68
2021/12/07 07:11:05;;;;;;;3.55;0.45;;;;;;;6.74;77.19;100189.19;7395867;19;20010;-66
2021/12/07 07:13:32;;;;;;;5.95;0.30;;;;;;;6.77;76.75;100180.22;7395192;19;20014;-68
2021/12/07 07:16:00;;;;;;;7.55;0.45;;;;;;;6.79;77.24;100180.91;7391242;19;20010;-68
2021/12/07 07:18:27;;;;;;;3.30;0.30;;;;;;;6.83;77.41;100182.25;7395475;19;20014;-68
2021/12/07 07:20:55;;;;;;;6.32;0.30;;;;;;;6.86;77.12;100171.50;7391868;19;20511;-66
2021/12/07 07:23:23;;;;;;;2.83;1.00;;;;;;;6.86;77.15;100161.03;7393436;19;20010;-67
2021/12/07 07:25:55;;;;;;;6.40;0.40;;;;;;;6.85;76.95;100162.84;7393883;19;20003;-67
2021/12/07 07:28:24;;;;;;;13.43;1.05;;;;;;;6.86;76.17;100158.41;7394549;19;20018;-66
2021/12/07 07:30:52;;;;;;;6.50;2.55;;;;;;;6.85;76.73;100144.56;7391071;19;20046;-68
2021/12/07 07:33:19;;;;;;;5.35;0.98;;;;;;;6.84;77.40;100144.69;7393513;19;20420;-67
2021/12/07 07:35:47;;;;;;;3.03;0.55;;;;;;;6.84;76.87;100135.06;7393479;19;20046;-70
2021/12/07 07:38:15;;;;;;;3.25;0.50;;;;;;;6.84;77.05;100129.84;7389891;19;20011;-69
2021/12/07 07:40:45;;;;;;;3.38;0.43;;;;;;;6.86;77.52;100114.81;7390266;19;20011;-68
2021/12/07 07:43:16;;;;;;;9.48;1.23;;;;;;;6.91;77.55;100122.19;7393233;19;20018;-69
2021/12/07 07:45:46;;;;;;;8.90;1.88;;;;;;;6.92;77.85;100116.00;7393364;19;20007;-68
2021/12/07 07:48:14;;;;;;;11.75;0.57;;;;;;;6.95;77.95;100117.53;7392299;19;20014;-71
2021/12/07 07:50:41;;;;;;;8.90;1.05;;;;;;;6.97;77.91;100113.78;7391186;19;20752;-68
2021/12/07 07:53:09;;;;;;;6.53;2.20;;;;;;;7.02;77.92;100103.69;7390485;19;20007;-68
2021/12/07 07:55:38;;;;;;;4.28;0.60;;;;;;;7.02;78.12;100092.41;7389591;19;20581;-68
2021/12/07 07:58:05;;;;;;;8.63;0.68;;;;;;;7.03;77.77;100087.03;7390257;19;20026;-67
2021/12/07 08:00:32;;;;;;;7.03;0.50;;;;;;;7.08;78.03;100078.75;7388074;19;20039;-69
2021/12/07 08:02:59;;;;;;;4.88;0.50;;;;;;;7.13;77.11;100076.50;7393990;19;20499;-68
2021/12/07 08:05:26;;;;;;;8.70;0.52;;;;;;;7.12;77.17;100065.22;7385468;19;20474;-67
2021/12/07 08:07:55;;;;;;;5.15;0.95;;;;;;;7.12;77.64;100061.78;7391917;19;20694;-68
2021/12/07 08:13:05;;;;;;;6.88;0.93;;;;;;;7.18;77.84;100040.25;7389008;19;20030;-69
2021/12/07 08:15:36;;;;;;;5.20;0.60;;;;;;;7.20;78.26;100025.25;7389176;19;20007;-69
2021/12/07 08:18:07;;;;;;;7.65;0.75;;;;;;;7.20;77.42;100018.22;7390379;19;20020;-70
2021/12/07 08:20:38;;;;;;;7.13;0.93;;;;;;;7.24;77.62;100008.28;7389165;19;20015;-70
2021/12/07 08:23:06;;;;;;;8.50;1.17;;;;;;;7.26;77.70;100001.09;7393013;19;20025;-71
2021/12/07 08:25:37;;;;;;;3.65;0.68;;;;;;;7.26;78.11;100007.13;7390201;19;20015;-68
2021/12/07 08:28:07;;;;;;;6.40;0.55;;;;;;;7.27;76.94;99981.78;7387504;19;20006;-68
2021/12/07 08:30:35;;;;;;;2.85;0.70;;;;;;;7.31;77.40;99997.03;7388178;19;20014;-67
2021/12/07 08:33:03;;;;;;;6.07;0.82;;;;;;;7.36;76.42;100011.47;7389171;19;20567;-67
2021/12/07 08:35:31;;;;;;;11.02;0.70;;;;;;;7.40;75.74;100015.41;7391632;19;20010;-70
2021/12/07 08:37:58;;;;;;;4.18;0.85;;;;;;;7.44;76.75;100011.53;7389313;19;20047;-69
2021/12/07 08:40:31;;;;;;;5.82;0.63;;;;;;;7.43;76.39;100012.47;7389191;19;20007;-68
2021/12/07 08:42:59;;;;;;;4.43;0.40;;;;;;;7.40;76.69;99997.94;7387742;19;20007;-68
2021/12/07 08:45:27;;;;;;;4.28;0.70;;;;;;;7.43;76.88;99979.28;7387388;19;20014;-69
2021/12/07 08:47:55;;;;;;;6.38;0.47;;;;;;;7.45;76.87;99976.53;7389573;19;20022;-68
2021/12/07 08:50:26;;;;;;;7.97;0.50;;;;;;;7.47;75.65;99972.75;7388309;19;20036;-69
2021/12/07 08:52:55;;;;;;;6.15;1.15;;;;;;;7.48;76.09;99987.50;7391395;19;20832;-67
2021/12/07 09:00:35;;;;;;;9.70;1.48;;;;;;;7.54;75.95;99972.97;7392039;19;20048;-69
2021/12/07 09:03:02;;;;;;;10.43;0.85;;;;;;;7.56;76.27;99956.16;7386972;19;20025;-68
2021/12/07 09:05:29;;;;;;;6.75;0.52;;;;;;;7.58;76.00;99962.03;7388250;19;20013;-70
2021/12/07 09:07:56;;;;;;;6.25;0.80;;;;;;;7.64;77.02;99958.00;7387430;19;20015;-66
2021/12/07 09:10:23;;;;;;;4.07;0.50;;;;;;;7.66;76.63;99949.03;7390131;19;20014;-68
2021/12/07 09:12:50;;;;;;;7.63;0.50;;;;;;;7.68;76.51;99935.75;7392844;19;20498;-69
2021/12/07 09:15:17;;;;;;;5.18;0.40;;;;;;;7.69;76.79;99906.81;7386732;19;20015;-69
2021/12/07 09:17:44;;;;;;;4.20;0.73;;;;;;;7.70;76.06;99908.44;7390706;19;20042;-68
2021/12/07 09:20:15;;;;;;;9.75;0.80;;;;;;;7.74;76.62;99911.56;7388588;19;20011;-70
2021/12/07 09:22:45;;;;;;;4.97;0.60;;;;;;;7.79;76.50;99896.22;7392228;19;20015;-68
2021/12/07 09:25:14;;;;;;;4.18;0.60;;;;;;;7.81;76.38;99869.88;7391410;19;20018;-71
2021/12/07 09:27:41;;;;;;;10.45;0.80;;;;;;;7.85;76.56;99856.31;7390085;19;20010;-69
2021/12/07 09:30:12;;;;;;;8.40;1.05;;;;;;;7.91;77.55;99841.75;7387653;19;20003;-69
2021/12/07 09:32:39;;;;;;;9.50;2.70;;;;;;;7.97;77.47;99835.88;7390128;19;20007;-67
2021/12/07 09:35:07;;;;;;;6.38;0.60;;;;;;;7.98;77.17;99824.41;7389799;19;20011;-70
2021/12/07 09:37:36;;;;;;;9.98;2.40;;;;;;;8.04;78.13;99818.53;7388453;19;20022;-67
2021/12/07 09:40:08;;;;;;;9.98;1.00;;;;;;;8.08;77.93;99799.69;7387935;19;20034;-68
2021/12/07 09:42:35;;;;;;;7.33;0.50;;;;;;;8.12;77.86;99768.78;7388787;19;20013;-70
2021/12/07 09:45:08;;;;;;;13.27;0.70;;;;;;;8.16;77.61;99760.44;7389256;19;20353;-69
2021/12/07 09:47:35;;;;;;;;;;;;;;;8.23;77.86;99744.06;7394515;19;20031;-70
2021/12/07 09:50:08;;;;;;;5.90;0.73;;;;;;;8.23;77.57;99750.09;7386892;19;19914;-68
2021/12/07 09:52:35;;;;;;;8.60;0.77;;;;;;;8.29;78.61;99740.75;7388323;19;20007;-69
2021/12/07 09:55:03;;;;;;;9.90;0.45;;;;;;;8.33;78.55;99727.19;7386160;19;20602;-65
2021/12/07 09:57:30;;;;;;;6.40;1.13;;;;;;;8.36;78.82;99718.19;7386302;19;20018;-71
2021/12/07 09:59:57;;;;;;;8.85;1.15;;;;;;;8.43;79.65;99719.97;7388374;19;20034;-69
2021/12/07 10:02:24;;;;;;;8.85;0.40;;;;;;;8.48;79.91;99711.63;7384411;19;20007;-68
2021/12/07 10:04:51;;;;;;;8.23;1.00;;;;;;;8.54;81.06;99700.44;7385393;19;20036;-67
2021/12/07 10:07:18;;;;;;;9.65;0.43;;;;;;;8.58;81.07;99694.69;7389019;19;20015;-68
2021/12/07 10:09:47;;;;;;;8.57;0.93;;;;;;;8.63;82.21;99685.53;7387440;19;20523;-70
2021/12/07 10:13:07;;;;;;;31.13;2.50;;;;;;;8.73;84.03;99681.72;7386446;19;20531;-67
2021/12/07 10:15:35;;;;;;;4.95;0.70;;;;;;;8.81;83.68;99660.72;7392068;19;20019;-67
2021/12/07 10:18:12;;;;;;;9.57;0.43;;;;;;;8.81;82.46;99658.09;7393137;19;20666;-68
2021/12/07 10:21:03;;;;;;;6.00;0.60;;;;;;;8.80;80.66;99651.19;7391778;19;20086;-70
2021/12/07 10:23:33;;;;;;;7.88;1.17;;;;;;;8.84;81.02;99630.69;7395675;19;20364;-69
2021/12/07 10:26:04;;;;;;;9.68;0.70;;;;;;;8.86;80.88;99619.06;7393678;19;20018;-68
2021/12/07 10:28:42;;;;;;;7.97;0.40;;;;;;;8.88;80.25;99609.22;7393808;19;20095;-68
2021/12/07 10:31:09;;;;;;;7.28;0.98;;;;;;;8.91;80.09;99598.38;7393173;19;20038;-68
2021/12/07 10:33:41;;;;;;;3.95;0.43;;;;;;;8.92;80.36;99594.75;7395950;19;20013;-69
2021/12/07 10:36:12;;;;;;;16.63;2.20;;;;;;;8.96;81.00;99593.41;7394086;19;20017;-68
2021/12/07 10:38:41;;;;;;;37.67;3.55;;;;;;;8.95;80.34;99586.53;7394487;19;20014;-67
2021/12/07 10:41:10;;;;;;;9.80;1.25;;;;;;;8.95;80.42;99581.28;7394709;19;20050;-67
2021/12/07 10:43:56;;;;;;;6.47;1.63;;;;;;;9.00;80.85;99565.84;7396997;19;20035;-71
2021/12/07 10:46:36;;;;;;;38.70;5.15;;;;;;;9.00;80.76;99552.72;7387680;19;20015;-70
2021/12/07 10:49:22;;;;;;;107.03;10.30;;;;;;;9.01;81.05;99538.63;7394192;19;20086;-70
2021/12/07 10:51:58;;;;;;;24.40;2.63;;;;;;;9.07;81.61;99534.50;7392753;19;20014;-70
2021/12/07 10:54:27;;;;;;;6.47;0.60;;;;;;;9.08;81.52;99536.13;7391619;19;20018;-66
2021/12/07 10:56:54;;;;;;;14.57;1.00;;;;;;;9.10;81.38;99528.06;7394805;19;20011;-67
2021/12/07 10:59:21;;;;;;;13.70;0.68;;;;;;;9.10;80.98;99510.50;7390732;19;20007;-70
2021/12/07 11:01:50;;;;;;;29.65;3.25;;;;;;;9.15;80.55;99504.72;7393642;19;20010;-68
2021/12/07 11:04:18;;;;;;;9.57;1.30;;;;;;;9.21;81.35;99486.47;7394430;19;20390;-69
2021/12/07 11:07:04;;;;;;;9.95;2.10;;;;;;;9.25;81.76;99476.44;7391649;19;20448;-70
2021/12/07 11:09:44;;;;;;;8.88;0.60;;;;;;;9.30;81.17;99474.91;7392737;19;20010;-70
2021/12/07 11:12:15;;;;;;;10.45;1.67;;;;;;;9.28;80.22;99453.31;7393970;19;20010;-67
2021/12/07 11:14:53;;;;;;;5.10;1.17;;;;;;;9.32;80.71;99438.00;7390956;19;20025;-69
2021/12/07 11:17:26;;;;;;;7.97;1.20;;;;;;;9.34;80.82;99439.47;7391055;19;20018;-69
2021/12/07 11:19:54;;;;;;;10.50;0.50;;;;;;;9.34;80.26;99434.22;7393167;19;20010;-68
2021/12/07 11:22:24;;;;;;;8.05;0.60;;;;;;;9.35;79.75;99417.44;7394688;19;20026;-67
2021/12/07 11:24:54;;;;;;;5.45;0.55;;;;;;;9.37;79.89;99412.84;7394569;19;20018;-69
2021/12/07 11:30:06;;;;;;;10.75;0.60;;;;;;;9.43;80.63;99403.44;7391481;19;20032;-68
2021/12/07 11:32:34;;;;;;;11.65;1.00;;;;;;;9.47;80.91;99398.63;7396173;19;20015;-70
2021/12/07 11:35:14;;;;;;;9.55;0.75;;;;;;;9.45;81.52;99383.88;7394047;19;20018;-69
2021/12/07 11:37:42;;;;;;;7.68;0.85;;;;;;;9.49;81.70;99386.16;7389641;19;20010;-65
2021/12/07 11:40:09;;;;;;;7.35;0.65;;;;;;;9.44;81.53;99371.75;7393442;19;20007;-68
2021/12/07 11:42:42;;;;;;;7.65;0.55;;;;;;;9.44;82.08;99373.56;7390655;19;20585;-67
2021/12/07 11:45:23;;;;;;;10.00;0.60;;;;;;;9.44;82.97;99344.69;7387545;19;20018;-67
2021/12/07 11:47:53;;;;;;;5.63;0.85;;;;;;;9.39;83.84;99333.94;7393233;19;20666;-70
2021/12/07 11:50:30;;;;;;;3.83;0.40;;;;;;;9.31;83.88;99308.59;7388915;19;20018;-69
2021/12/07 11:53:01;;;;;;;7.47;1.08;;;;;;;9.28;85.13;99289.78;7392872;19;20014;-68
2021/12/07 11:55:29;;;;;;;6.38;0.73;;;;;;;9.26;85.43;99283.88;7388784;19;20054;-69
2021/12/07 11:57:56;;;;;;;6.40;0.93;;;;;;;9.26;85.91;99265.50;7390350;19;20002;-68
2021/12/07 12:00:34;;;;;;;11.85;0.85;;;;;;;9.20;85.73;99259.19;7396452;19;20006;-66
2021/12/07 12:03:04;;;;;;;5.07;1.02;;;;;;;9.19;85.88;99236.59;7392262;19;20007;-67
2021/12/07 12:05:31;;;;;;;10.82;0.73;;;;;;;9.15;86.11;99227.44;7391441;19;20018;-68
2021/12/07 12:07:59;;;;;;;4.15;0.75;;;;;;;9.17;86.68;99216.75;7393827;19;20353;-70
2021/12/07 12:10:26;;;;;;;7.43;1.10;;;;;;;9.21;86.95;99204.88;7392632;19;20134;-69
2021/12/07 12:13:01;;;;;;;6.45;0.50;;;;;;;9.20;87.12;99190.13;7388930;19;20011;-68
2021/12/07 12:15:45;;;;;;;9.55;0.98;;;;;;;9.15;86.55;99172.34;7388914;19;20034;-69
2021/12/07 12:18:15;;;;;;;9.43;0.50;;;;;;;9.15;87.04;99174.94;7389775;19;20010;-67
2021/12/07 12:20:56;;;;;;;4.30;0.70;;;;;;;9.15;86.58;99158.41;7388171;19;20014;-69
2021/12/07 12:23:35;;;;;;;7.60;1.90;;;;;;;9.15;87.19;99132.16;7392062;19;20010;-68
2021/12/07 12:26:07;;;;;;;13.88;1.58;;;;;;;9.17;87.40;99120.50;7389173;19;20038;-69
2021/12/07 12:28:47;;;;;;;7.50;0.40;;;;;;;9.16;87.43;99104.94;7390350;19;20694;-69
2021/12/07 12:31:14;;;;;;;13.75;1.85;;;;;;;9.17;88.27;99093.44;7389073;19;20017;-69
2021/12/07 12:33:52;;;;;;;6.95;0.45;;;;;;;9.18;87.84;99087.19;7390922;19;20003;-69
2021/12/07 12:36:23;;;;;;;9.98;1.25;;;;;;;9.15;87.56;99090.19;7388387;19;20022;-70
2021/12/07 12:38:57;;;;;;;9.90;1.10;;;;;;;9.16;87.94;99079.50;7388428;19;20007;-69
2021/12/07 12:41:26;;;;;;;3.35;0.60;;;;;;;9.17;88.28;99056.72;7390380;19;20022;-69
2021/12/07 12:44:00;;;;;;;12.02;2.30;;;;;;;9.18;88.31;99047.84;7390389;19;20346;-69
2021/12/07 12:46:32;;;;;;;6.00;0.55;;;;;;;9.19;88.56;99044.22;7385890;19;20728;-66
2021/12/07 12:49:07;;;;;;;12.40;2.20;;;;;;;9.22;88.87;99041.22;7390184;19;20006;-71
2021/12/07 12:51:46;;;;;;;30.13;2.63;;;;;;;9.25;88.95;99018.03;7386937;19;20468;-70
2021/12/07 12:54:13;;;;;;;13.52;0.80;;;;;;;9.22;88.53;99012.34;7393611;19;20014;-67
2021/12/07 12:56:40;;;;;;;5.13;0.82;;;;;;;9.20;88.63;98988.09;7387499;19;20038;-69
2021/12/07 12:59:10;;;;;;;8.77;0.68;;;;;;;9.24;88.91;98984.94;7389158;19;20018;-69
2021/12/07 13:01:40;;;;;;;6.97;1.05;;;;;;;9.26;89.22;98971.59;7391171;19;20014;-68
2021/12/07 13:04:13;;;;;;;12.57;2.17;;;;;;;9.26;89.74;98963.72;7385105;19;20077;-68
2021/12/07 13:06:46;;;;;;;9.70;0.80;;;;;;;9.23;89.49;98951.81;7388451;19;20382;-70
2021/12/07 13:09:18;;;;;;;9.18;0.90;;;;;;;9.23;89.97;98937.88;7387836;19;20010;-70
2021/12/07 13:11:58;;;;;;;4.70;0.50;;;;;;;9.26;90.35;98921.75;7387715;19;20025;-69
2021/12/07 13:14:25;;;;;;;8.52;0.63;;;;;;;9.28;90.39;98914.50;7386402;19;20030;-66
2021/12/07 13:17:02;;;;;;;9.52;1.20;;;;;;;9.27;90.40;98889.25;7388011;19;20019;-67
2021/12/07 13:19:34;;;;;;;15.73;1.50;;;;;;;9.27;90.38;98884.84;7387127;19;20006;-69
2021/12/07 13:22:04;;;;;;;6.78;0.65;;;;;;;9.27;90.06;98873.53;7388569;19;20019;-69
2021/12/07 13:24:35;;;;;;;5.15;0.60;;;;;;;9.26;90.41;98867.47;7387456;19;20025;-69
2021/12/07 13:27:10;;;;;;;12.68;1.30;;;;;;;9.27;90.38;98855.16;7386738;19;20332;-67
2021/12/07 13:29:46;;;;;;;9.27;1.17;;;;;;;9.29;90.99;98848.72;7386842;19;20451;-68
2021/12/07 13:32:14;;;;;;;10.32;0.88;;;;;;;9.29;90.90;98838.22;7388357;19;20010;-70
2021/12/07 13:34:41;;;;;;;8.15;0.70;;;;;;;9.33;91.21;98817.66;7391762;19;20038;-68
2021/12/07 13:37:10;;;;;;;7.03;0.95;;;;;;;9.34;91.32;98800.91;7387265;19;20018;-69
2021/12/07 13:39:44;;;;;;;6.78;0.90;;;;;;;9.34;90.96;98798.28;7389036;19;20011;-66
2021/12/07 13:42:22;;;;;;;5.22;0.55;;;;;;;9.36;90.97;98777.88;7385267;19;20048;-67
2021/12/07 13:45:03;;;;;;;6.07;0.88;;;;;;;9.39;91.00;98757.31;7390971;19;20146;-69
2021/12/07 13:47:34;;;;;;;2.72;0.50;;;;;;;9.43;90.60;98731.47;7388115;19;20066;-68
2021/12/07 13:50:09;;;;;;;3.55;0.40;;;;;;;9.46;90.38;98733.69;7385541;19;20115;-69